Time;durP1;ratioP1;P1;durP2;ratioP2;P2;SDS_P1;SDS_P2;PMS_P1;PMS_P2;Temp;Humidity;BMP_temperature;BMP_pressure;BME280_temperature;BME280_humidity;BME280_pressure;Samples;Min_cycle;Max_cycle;Signal;HPM_P1;HPM_P2
2023/09/17 00:02:15;;;;;;;14.05;11.13;;;;;;;18.36;100.00;101142.06;5056278;28;20025;-71
2023/09/17 00:04:40;;;;;;;14.45;11.07;;;;;;;18.34;100.00;101141.47;5036966;28;20641;-70
2023/09/17 00:07:06;;;;;;;12.60;10.45;;;;;;;18.28;100.00;101140.63;5036846;28;20028;-71
2023/09/17 00:09:31;;;;;;;12.90;10.65;;;;;;;18.28;100.00;101139.81;5037758;28;20037;-71
2023/09/17 00:11:57;;;;;;;13.57;11.00;;;;;;;18.28;100.00;101137.09;5038615;28;20021;-69
2023/09/17 00:14:22;;;;;;;15.35;10.35;;;;;;;18.22;100.00;101137.06;5038566;28;20500;-70
2023/09/17 00:16:48;;;;;;;11.45;10.23;;;;;;;18.14;100.00;101139.50;5038322;28;20036;-69
2023/09/17 00:19:13;;;;;;;11.38;9.35;;;;;;;18.15;100.00;101139.25;5037786;28;20044;-71
2023/09/17 00:21:38;;;;;;;13.35;9.70;;;;;;;18.10;100.00;101139.22;5037909;28;20032;-70
2023/09/17 00:24:04;;;;;;;11.85;9.25;;;;;;;18.06;100.00;101143.59;5035021;28;20037;-71
2023/09/17 00:26:30;;;;;;;10.70;8.90;;;;;;;18.03;100.00;101160.56;5035360;28;20029;-70
2023/09/17 00:28:55;;;;;;;13.93;9.52;;;;;;;18.01;100.00;101154.50;5035017;28;20025;-70
2023/09/17 00:31:20;;;;;;;10.27;8.35;;;;;;;17.99;100.00;101149.31;5035289;28;20376;-70
2023/09/17 00:33:46;;;;;;;12.07;8.65;;;;;;;18.03;100.00;101144.13;5034302;28;20138;-69
2023/09/17 00:36:11;;;;;;;9.23;8.32;;;;;;;17.96;100.00;101138.06;5035339;28;20033;-69
2023/09/17 00:38:36;;;;;;;10.15;8.40;;;;;;;17.94;100.00;101152.03;5034808;28;20529;-70
2023/09/17 00:41:02;;;;;;;9.98;7.88;;;;;;;17.87;100.00;101140.47;5035326;28;20029;-70
2023/09/17 00:43:27;;;;;;;9.18;8.23;;;;;;;17.89;100.00;101146.53;5033691;28;20465;-70
2023/09/17 00:45:52;;;;;;;9.80;8.57;;;;;;;17.81;100.00;101147.81;5034786;28;20025;-70
2023/09/17 00:48:18;;;;;;;11.45;8.13;;;;;;;17.77;100.00;101141.25;5033845;28;20036;-69
2023/09/17 00:50:44;;;;;;;9.55;8.20;;;;;;;17.70;100.00;101135.19;5034662;28;20060;-70
2023/09/17 00:53:09;;;;;;;9.23;8.25;;;;;;;17.65;100.00;101137.91;5034880;28;20534;-71
2023/09/17 00:55:36;;;;;;;11.18;8.40;;;;;;;17.63;100.00;101129.94;5033362;28;20449;-70
2023/09/17 00:58:04;;;;;;;10.85;8.13;;;;;;;17.69;100.00;101133.53;5033443;28;20045;-70
2023/09/17 01:00:31;;;;;;;9.63;8.02;;;;;;;17.65;100.00;101132.44;5032044;28;20460;-71
2023/09/17 01:03:00;;;;;;;9.75;8.75;;;;;;;17.62;100.00;101122.00;5033754;28;20037;-71
2023/09/17 01:05:36;;;;;;;9.65;8.75;;;;;;;17.57;100.00;101124.72;5050804;28;20069;-71
2023/09/17 01:08:04;;;;;;;10.98;9.02;;;;;;;17.53;100.00;101118.97;5072943;28;20383;-71
2023/09/17 01:10:29;;;;;;;12.45;9.27;;;;;;;17.48;100.00;101114.28;5074299;28;20028;-71
2023/09/17 01:12:55;;;;;;;10.63;8.88;;;;;;;17.48;100.00;101114.28;5074154;28;20025;-71
2023/09/17 01:15:20;;;;;;;10.30;8.65;;;;;;;17.46;100.00;101118.38;5074350;28;20024;-73
2023/09/17 01:17:45;;;;;;;10.27;9.10;;;;;;;17.44;100.00;101120.56;5074069;28;20020;-68
2023/09/17 01:20:24;;;;;;;10.95;8.75;;;;;;;17.41;100.00;101116.44;5055018;28;20029;-71
2023/09/17 01:22:55;;;;;;;14.57;9.45;;;;;;;17.34;100.00;101118.56;5054048;28;20115;-70
2023/09/17 01:25:51;;;;;;;12.43;9.25;;;;;;;17.37;100.00;101107.09;5055378;28;20052;-71
2023/09/17 01:28:18;;;;;;;12.75;9.38;;;;;;;17.27;100.00;101098.81;5073891;28;20052;-71
2023/09/17 01:30:45;;;;;;;11.88;8.98;;;;;;;17.15;100.00;101097.13;5073770;28;20028;-71
2023/09/17 01:33:11;;;;;;;10.52;9.45;;;;;;;17.13;100.00;101093.00;5073090;28;20034;-69
2023/09/17 01:36:02;;;;;;;12.32;9.80;;;;;;;17.21;100.00;101097.13;5052870;28;20108;-71
2023/09/17 01:38:32;;;;;;;10.30;9.27;;;;;;;17.07;100.00;101097.59;5054004;28;20090;-71
2023/09/17 01:41:01;;;;;;;12.38;9.57;;;;;;;17.02;100.00;101092.09;5035852;28;20749;-70
2023/09/17 01:43:26;;;;;;;11.57;9.85;;;;;;;16.97;100.00;101092.88;5053474;28;20083;-70
2023/09/17 01:45:52;;;;;;;13.82;9.30;;;;;;;17.03;100.00;101093.75;5053275;28;20025;-69
2023/09/17 01:48:18;;;;;;;12.55;10.00;;;;;;;17.00;100.00;101080.63;5053307;28;20064;-70
2023/09/17 01:50:45;;;;;;;10.23;8.85;;;;;;;16.99;100.00;101081.69;5053066;28;20044;-71
2023/09/17 01:53:13;;;;;;;12.23;9.18;;;;;;;16.92;100.00;101075.63;5053122;28;20025;-70
2023/09/17 01:55:41;;;;;;;10.35;9.27;;;;;;;16.87;100.00;101076.41;5053612;28;20040;-70
2023/09/17 01:58:09;;;;;;;10.07;9.07;;;;;;;16.87;100.00;101067.41;5053471;28;20029;-71
2023/09/17 02:00:35;;;;;;;11.10;9.93;;;;;;;16.86;100.00;101060.25;5033218;28;20033;-69
2023/09/17 02:03:02;;;;;;;12.70;10.05;;;;;;;16.82;100.00;101060.75;5054826;28;20033;-69
2023/09/17 02:05:28;;;;;;;12.60;9.50;;;;;;;16.75;100.00;101071.09;5073355;28;20037;-69
2023/09/17 02:07:53;;;;;;;10.88;9.32;;;;;;;16.82;100.00;101065.41;5056906;28;20533;-70
2023/09/17 02:10:18;;;;;;;10.13;9.13;;;;;;;16.77;100.00;101065.34;5053242;28;20463;-69
2023/09/17 02:12:44;;;;;;;12.57;9.85;;;;;;;16.84;100.00;101076.91;5053082;28;20068;-71
2023/09/17 02:15:10;;;;;;;12.25;9.85;;;;;;;16.82;100.00;101074.44;5035316;28;20029;-70
2023/09/17 02:17:35;;;;;;;10.65;9.60;;;;;;;16.79;100.00;101076.88;5053207;28;20036;-71
2023/09/17 02:20:00;;;;;;;11.10;10.00;;;;;;;16.80;100.00;101078.50;5052911;28;20384;-71
2023/09/17 02:22:26;;;;;;;13.95;10.63;;;;;;;16.74;100.00;101074.91;5035163;28;20033;-70
2023/09/17 02:24:51;;;;;;;13.38;10.35;;;;;;;16.76;100.00;101064.53;5051898;28;20068;-70
2023/09/17 02:27:17;;;;;;;12.00;10.68;;;;;;;16.76;100.00;101064.53;5035094;28;20064;-69
2023/09/17 02:29:43;;;;;;;14.23;11.23;;;;;;;16.77;100.00;101052.53;5052369;28;20028;-71
2023/09/17 02:32:10;;;;;;;13.93;11.48;;;;;;;16.80;100.00;101048.44;5052966;28;20507;-69
2023/09/17 02:34:35;;;;;;;12.88;11.48;;;;;;;16.78;100.00;101053.34;5035015;28;20041;-69
2023/09/17 02:37:00;;;;;;;12.60;11.10;;;;;;;16.80;100.00;101053.91;5050958;28;20041;-69
2023/09/17 02:39:26;;;;;;;12.98;11.55;;;;;;;16.83;100.00;101048.75;5052272;28;20044;-70
2023/09/17 02:41:51;;;;;;;13.15;11.82;;;;;;;16.81;100.00;101037.25;5052259;28;20031;-69
2023/09/17 02:44:17;;;;;;;14.40;12.15;;;;;;;16.78;100.00;101040.50;5065469;28;20057;-71
2023/09/17 02:46:42;;;;;;;12.82;11.52;;;;;;;16.78;100.00;101036.94;5072133;28;20037;-69
2023/09/17 02:49:08;;;;;;;12.95;11.57;;;;;;;16.75;100.00;101032.81;5072594;28;20024;-71
2023/09/17 02:51:34;;;;;;;15.00;12.68;;;;;;;16.79;100.00;101027.69;5072653;28;20020;-69
2023/09/17 02:53:59;;;;;;;13.52;12.13;;;;;;;16.76;100.00;101033.66;5059627;28;20115;-69
2023/09/17 02:56:25;;;;;;;14.18;12.65;;;;;;;16.74;100.00;101031.19;5052559;28;20111;-70
2023/09/17 02:58:50;;;;;;;13.52;12.13;;;;;;;16.70;100.00;101030.06;5052338;28;20033;-70
2023/09/17 03:01:18;;;;;;;13.77;12.25;;;;;;;16.69;100.00;101028.41;5049863;28;20029;-69
2023/09/17 03:03:44;;;;;;;14.55;13.05;;;;;;;16.66;100.00;101032.47;5051529;28;20053;-71
2023/09/17 03:06:10;;;;;;;14.88;12.68;;;;;;;16.57;100.00;101031.31;5052462;28;20028;-69
2023/09/17 03:08:41;;;;;;;16.20;13.25;;;;;;;16.61;100.00;101031.63;5052299;28;20170;-71
2023/09/17 03:11:17;;;;;;;14.25;12.68;;;;;;;16.50;100.00;101028.00;5052222;28;20036;-70
2023/09/17 03:13:46;;;;;;;14.90;12.65;;;;;;;16.44;100.00;101027.13;5052429;28;20075;-70
2023/09/17 03:16:15;;;;;;;13.93;12.40;;;;;;;16.35;100.00;101015.03;5052429;28;20135;-70
2023/09/17 03:18:43;;;;;;;13.85;11.95;;;;;;;16.39;100.00;101018.06;5057345;28;20052;-70
2023/09/17 03:21:09;;;;;;;13.55;12.23;;;;;;;16.29;100.00;101024.28;5072388;28;20024;-71
2023/09/17 03:23:35;;;;;;;16.35;13.35;;;;;;;16.28;100.00;101026.16;5072321;28;20070;-69
2023/09/17 03:26:01;;;;;;;14.07;12.57;;;;;;;16.26;100.00;101028.34;5044589;28;20037;-69
2023/09/17 03:28:27;;;;;;;13.43;12.13;;;;;;;16.26;100.00;101024.75;5052031;28;20036;-70
2023/09/17 03:30:53;;;;;;;13.27;11.95;;;;;;;16.30;100.00;101026.75;5051919;28;20036;-70
2023/09/17 03:33:18;;;;;;;13.13;11.85;;;;;;;16.23;100.00;101028.00;5051688;28;20044;-70
2023/09/17 03:35:44;;;;;;;13.75;12.18;;;;;;;16.21;100.00;101027.44;5051845;28;20083;-69
2023/09/17 03:38:09;;;;;;;15.50;12.48;;;;;;;16.22;100.00;101029.09;5051769;28;20056;-71
2023/09/17 03:40:35;;;;;;;14.10;12.40;;;;;;;16.24;100.00;101035.13;5051866;28;20033;-71
2023/09/17 03:43:00;;;;;;;13.90;12.50;;;;;;;16.19;100.00;101027.72;5051373;28;20646;-68
2023/09/17 03:45:25;;;;;;;14.00;12.60;;;;;;;16.13;100.00;101031.47;5051806;28;20082;-71
2023/09/17 03:47:51;;;;;;;13.90;12.50;;;;;;;16.10;100.00;101032.00;5051727;28;20191;-69
2023/09/17 03:50:16;;;;;;;14.60;12.52;;;;;;;16.10;100.00;101027.34;5051715;28;20031;-70
2023/09/17 03:52:46;;;;;;;13.95;12.40;;;;;;;16.10;100.00;101032.81;5067493;28;20033;-70
2023/09/17 03:55:12;;;;;;;13.85;12.45;;;;;;;16.16;100.00;101022.78;5052016;28;20032;-71
2023/09/17 03:57:39;;;;;;;14.48;12.98;;;;;;;16.15;100.00;101031.22;5052373;28;20025;-70
2023/09/17 04:00:07;;;;;;;14.02;12.63;;;;;;;16.18;100.00;101025.25;5055498;28;20494;-69
2023/09/17 04:02:39;;;;;;;14.77;13.15;;;;;;;16.11;100.00;101034.47;5054502;28;20430;-71
2023/09/17 04:05:09;;;;;;;15.30;12.38;;;;;;;16.16;100.00;101027.41;5055632;28;20052;-70
2023/09/17 04:07:35;;;;;;;17.17;13.80;;;;;;;16.11;100.00;101031.72;5037739;28;20040;-70
2023/09/17 04:10:02;;;;;;;14.35;12.85;;;;;;;16.17;100.00;101024.44;5055302;28;20029;-69
2023/09/17 04:12:27;;;;;;;14.63;13.23;;;;;;;16.16;100.00;101024.69;5055298;28;20507;-70
2023/09/17 04:14:53;;;;;;;14.82;13.23;;;;;;;16.12;100.00;101022.47;5055100;28;20036;-69
2023/09/17 04:17:19;;;;;;;14.57;13.15;;;;;;;16.06;100.00;101023.50;5054543;28;20048;-69
2023/09/17 04:19:45;;;;;;;17.50;13.55;;;;;;;16.02;100.00;101013.34;5074157;28;20486;-68
2023/09/17 04:22:10;;;;;;;14.75;13.38;;;;;;;16.02;100.00;101018.78;5075140;28;20112;-69
2023/09/17 04:24:38;;;;;;;15.02;13.52;;;;;;;16.03;100.00;101021.25;5075313;28;20033;-70
2023/09/17 04:27:04;;;;;;;19.48;14.00;;;;;;;16.09;100.00;101020.25;5075012;28;20071;-70
2023/09/17 04:29:29;;;;;;;15.48;13.70;;;;;;;16.11;100.00;101017.28;5074845;28;20057;-70
2023/09/17 04:31:54;;;;;;;15.85;14.18;;;;;;;16.03;100.00;101023.19;5062851;28;20441;-69
2023/09/17 04:34:20;;;;;;;16.13;14.43;;;;;;;16.03;100.00;101012.25;5055115;28;20070;-71
2023/09/17 04:36:46;;;;;;;15.75;14.15;;;;;;;16.06;100.00;101015.31;5065457;28;20503;-71
2023/09/17 04:39:14;;;;;;;17.45;14.30;;;;;;;16.07;100.00;101011.47;5074790;28;20078;-69
2023/09/17 04:41:40;;;;;;;15.73;14.02;;;;;;;16.03;100.00;101015.81;5075029;28;20052;-71
2023/09/17 04:44:07;;;;;;;17.00;14.50;;;;;;;16.09;100.00;101017.53;5074753;28;20025;-71
2023/09/17 04:46:34;;;;;;;15.70;13.95;;;;;;;16.08;100.00;101013.16;5064143;28;20037;-70
2023/09/17 04:48:59;;;;;;;16.88;15.10;;;;;;;16.06;100.00;101011.75;5054288;28;20397;-71
2023/09/17 04:51:24;;;;;;;15.68;14.07;;;;;;;16.08;100.00;101009.59;5054825;28;20029;-69
2023/09/17 04:53:49;;;;;;;16.27;14.57;;;;;;;15.95;100.00;101008.09;5054970;28;20079;-71
2023/09/17 04:56:15;;;;;;;18.20;15.80;;;;;;;15.99;100.00;101009.22;5054676;28;20108;-71
2023/09/17 04:58:40;;;;;;;17.17;15.35;;;;;;;15.97;100.00;100996.91;5062239;28;20097;-70
2023/09/17 05:01:06;;;;;;;18.48;15.73;;;;;;;15.99;100.00;101001.03;5062575;28;20033;-69
2023/09/17 05:03:32;;;;;;;18.42;16.42;;;;;;;15.97;100.00;101010.56;5054439;28;20559;-69
2023/09/17 05:05:57;;;;;;;19.20;16.35;;;;;;;15.98;100.00;101007.56;5054086;28;20103;-71
2023/09/17 05:08:24;;;;;;;18.67;16.05;;;;;;;15.94;100.00;101011.88;5054219;28;20037;-69
2023/09/17 05:10:49;;;;;;;19.33;16.15;;;;;;;16.00;100.00;101020.97;5054377;28;20029;-71
2023/09/17 05:13:15;;;;;;;17.25;15.40;;;;;;;16.00;100.00;101016.31;5054443;28;20541;-69
2023/09/17 05:15:40;;;;;;;19.95;16.75;;;;;;;16.03;100.00;101020.44;5054016;28;20032;-71
2023/09/17 05:18:09;;;;;;;18.60;16.77;;;;;;;16.05;100.00;101018.31;5036281;28;20353;-70
2023/09/17 05:20:35;;;;;;;18.27;16.02;;;;;;;16.04;100.00;101011.19;5053543;28;20470;-70
2023/09/17 05:23:01;;;;;;;19.60;17.27;;;;;;;16.06;100.00;101020.78;5053457;28;20037;-69
2023/09/17 05:25:26;;;;;;;18.80;16.90;;;;;;;16.09;100.00;101014.81;5053904;28;20051;-70
2023/09/17 05:27:52;;;;;;;19.58;17.52;;;;;;;16.07;100.00;101019.69;5036058;28;20514;-71
2023/09/17 05:30:17;;;;;;;18.90;16.90;;;;;;;16.09;100.00;101012.06;5053620;28;20060;-71
2023/09/17 05:32:43;;;;;;;19.58;17.48;;;;;;;16.04;100.00;101020.19;5054075;28;20124;-70
2023/09/17 05:35:08;;;;;;;20.17;18.10;;;;;;;16.11;100.00;101015.34;5053932;28;20028;-71
2023/09/17 05:37:34;;;;;;;19.10;16.80;;;;;;;16.10;100.00;101021.88;5053960;28;20033;-69
2023/09/17 05:39:59;;;;;;;18.23;16.33;;;;;;;16.19;100.00;101022.25;5035718;28;20033;-71
2023/09/17 05:42:24;;;;;;;20.02;17.35;;;;;;;16.12;100.00;101013.44;5053476;28;20021;-71
2023/09/17 05:44:50;;;;;;;19.70;17.65;;;;;;;16.11;100.00;101029.00;5053107;28;20480;-70
2023/09/17 05:47:15;;;;;;;20.85;17.67;;;;;;;16.01;100.00;101031.63;5053527;28;20033;-71
2023/09/17 05:49:41;;;;;;;19.52;17.63;;;;;;;16.12;100.00;101019.75;5035797;28;20029;-69
2023/09/17 05:52:06;;;;;;;19.75;17.67;;;;;;;16.15;100.00;101020.28;5053448;28;20432;-71
2023/09/17 05:54:32;;;;;;;20.10;18.13;;;;;;;16.08;100.00;101013.16;5053577;28;20029;-71
2023/09/17 05:56:57;;;;;;;20.67;17.65;;;;;;;16.13;100.00;101013.19;5053291;28;20024;-74
2023/09/17 05:59:22;;;;;;;21.15;17.95;;;;;;;16.08;100.00;101020.53;5052787;28;20033;-74
2023/09/17 06:01:48;;;;;;;20.20;17.88;;;;;;;16.08;100.00;101012.34;5051214;28;20480;-75
2023/09/17 06:04:13;;;;;;;20.58;18.50;;;;;;;16.09;100.00;101019.41;5031446;28;20049;-75
2023/09/17 06:06:39;;;;;;;20.95;18.55;;;;;;;16.10;100.00;101015.63;5038352;28;20021;-74
2023/09/17 06:09:05;;;;;;;20.08;17.98;;;;;;;16.12;100.00;101016.16;5051802;28;20073;-73
2023/09/17 06:11:30;;;;;;;20.92;18.90;;;;;;;16.15;100.00;101014.84;5053359;28;20036;-73
2023/09/17 06:13:55;;;;;;;19.83;17.85;;;;;;;16.21;100.00;101024.72;5053082;28;20033;-72
2023/09/17 06:16:21;;;;;;;20.00;18.10;;;;;;;16.18;100.00;101017.06;5053070;28;20036;-73
2023/09/17 06:18:46;;;;;;;20.85;18.70;;;;;;;16.12;100.00;101022.47;5052038;28;20033;-74
2023/09/17 06:21:12;;;;;;;20.50;18.23;;;;;;;16.16;100.00;101024.69;5038527;28;20037;-73
2023/09/17 06:23:40;;;;;;;20.95;18.85;;;;;;;16.15;100.00;101023.84;5038553;28;20025;-73
2023/09/17 06:26:07;;;;;;;20.83;18.48;;;;;;;16.14;100.00;101024.94;5051500;28;20032;-73
2023/09/17 06:28:32;;;;;;;21.02;18.83;;;;;;;16.09;100.00;101027.59;5053345;28;20108;-73
2023/09/17 06:30:58;;;;;;;21.45;19.27;;;;;;;16.08;100.00;101026.78;5051448;28;20115;-73
2023/09/17 06:33:23;;;;;;;22.20;20.02;;;;;;;16.06;100.00;101025.41;5052661;28;20377;-74
2023/09/17 06:35:48;;;;;;;23.58;20.23;;;;;;;16.07;100.00;101027.06;5052577;28;20040;-74
2023/09/17 06:38:14;;;;;;;23.30;20.88;;;;;;;16.08;100.00;101026.78;5046799;28;20031;-73
2023/09/17 06:40:39;;;;;;;22.40;20.00;;;;;;;16.14;100.00;101022.22;5039052;28;20025;-75
2023/09/17 06:43:05;;;;;;;23.13;20.67;;;;;;;16.18;100.00;101023.31;5032985;28;20037;-73
2023/09/17 06:45:30;;;;;;;26.67;20.80;;;;;;;16.24;100.00;101022.28;5032810;28;20033;-75
2023/09/17 06:47:56;;;;;;;23.48;21.13;;;;;;;16.23;100.00;101019.81;5031519;28;20592;-75
2023/09/17 06:50:21;;;;;;;23.15;20.58;;;;;;;16.30;100.00;101020.44;5032601;28;20033;-73
2023/09/17 06:52:46;;;;;;;23.35;21.02;;;;;;;16.33;100.00;101019.91;5032218;28;20033;-73
2023/09/17 06:55:11;;;;;;;22.77;20.27;;;;;;;16.36;100.00;101019.41;5031224;28;20492;-74
2023/09/17 06:57:37;;;;;;;22.73;20.40;;;;;;;16.38;100.00;101016.41;5031416;28;20465;-74
2023/09/17 07:00:03;;;;;;;23.80;21.50;;;;;;;16.39;100.00;101016.16;5031210;28;20032;-75
2023/09/17 07:02:28;;;;;;;23.23;20.83;;;;;;;16.43;100.00;101020.00;5031902;28;20022;-73
2023/09/17 07:04:55;;;;;;;22.83;20.42;;;;;;;16.43;100.00;101019.19;5048032;28;20048;-74
2023/09/17 07:07:20;;;;;;;23.60;21.25;;;;;;;16.40;100.00;101026.00;5051940;28;20141;-73
2023/09/17 07:09:46;;;;;;;25.00;22.25;;;;;;;16.43;100.00;101025.47;5034033;28;20479;-73
2023/09/17 07:12:11;;;;;;;24.27;21.88;;;;;;;16.47;100.00;101023.88;5052152;28;20032;-73
2023/09/17 07:14:36;;;;;;;24.13;21.35;;;;;;;16.51;100.00;101023.34;5052369;28;20040;-75
2023/09/17 07:17:01;;;;;;;24.98;22.48;;;;;;;16.49;100.00;101029.06;5052143;28;20048;-74
2023/09/17 07:19:27;;;;;;;25.25;22.75;;;;;;;16.46;100.00;101018.69;5052305;28;20380;-73
2023/09/17 07:21:52;;;;;;;25.73;22.92;;;;;;;16.56;100.00;101023.38;5052382;28;20029;-74
2023/09/17 07:24:18;;;;;;;24.90;22.40;;;;;;;16.55;100.00;101010.84;5034995;28;20464;-72
2023/09/17 07:26:43;;;;;;;26.25;23.65;;;;;;;16.63;100.00;101018.53;5066112;28;20032;-74
2023/09/17 07:29:09;;;;;;;25.08;22.48;;;;;;;16.66;100.00;101010.63;5053963;28;20106;-72
2023/09/17 07:31:34;;;;;;;25.75;23.05;;;;;;;16.67;100.00;101006.00;5072576;28;20036;-73
2023/09/17 07:34:00;;;;;;;25.20;22.58;;;;;;;16.74;100.00;101009.34;5076442;28;20035;-72
2023/09/17 07:36:25;;;;;;;26.33;23.00;;;;;;;16.74;100.00;101008.50;5058202;28;20181;-74
2023/09/17 07:38:51;;;;;;;31.02;23.73;;;;;;;16.79;100.00;101003.09;5044263;28;20021;-72
2023/09/17 07:41:17;;;;;;;26.75;23.98;;;;;;;16.85;100.00;101010.22;5055987;28;20081;-73
2023/09/17 07:43:42;;;;;;;25.98;23.38;;;;;;;16.80;100.00;101013.75;5055346;28;20029;-73
2023/09/17 07:46:11;;;;;;;28.05;25.35;;;;;;;16.84;100.00;101014.03;5037766;28;20033;-73
2023/09/17 07:48:36;;;;;;;28.27;25.38;;;;;;;16.81;100.00;101006.38;5056107;28;20068;-73
2023/09/17 07:51:02;;;;;;;29.33;26.38;;;;;;;16.83;100.00;101010.50;5055745;28;20028;-73
2023/09/17 07:53:27;;;;;;;29.88;26.92;;;;;;;16.83;100.00;101013.22;5039503;28;20032;-73
2023/09/17 07:55:53;;;;;;;33.15;25.75;;;;;;;16.75;100.00;101019.16;5055355;28;20037;-73
2023/09/17 07:58:19;;;;;;;29.90;26.88;;;;;;;16.75;100.00;101023.81;5037698;28;20032;-74
2023/09/17 08:00:45;;;;;;;30.25;27.08;;;;;;;16.72;100.00;101022.41;5053232;28;20040;-74
2023/09/17 08:03:13;;;;;;;29.70;26.75;;;;;;;16.70;100.00;101029.22;5055460;28;20033;-74
2023/09/17 08:05:40;;;;;;;29.90;26.83;;;;;;;16.82;100.00;101032.63;5060214;28;20028;-73
2023/09/17 08:08:07;;;;;;;33.25;29.45;;;;;;;16.80;100.00;101035.63;5055402;28;20112;-73
2023/09/17 08:10:32;;;;;;;32.20;28.83;;;;;;;16.82;100.00;101038.09;5055522;28;20025;-74
2023/09/17 08:12:59;;;;;;;31.08;26.98;;;;;;;16.88;100.00;101044.41;5055475;28;20032;-76
2023/09/17 08:15:29;;;;;;;31.30;27.95;;;;;;;16.90;100.00;101036.78;5036320;28;20045;-77
2023/09/17 08:17:57;;;;;;;31.48;27.75;;;;;;;16.89;100.00;101033.22;5037292;28;20074;-73
2023/09/17 08:20:23;;;;;;;32.42;28.67;;;;;;;16.91;100.00;101035.69;5036155;28;20053;-74
2023/09/17 08:22:50;;;;;;;31.85;28.55;;;;;;;16.93;100.00;101037.09;5070316;28;20060;-74
2023/09/17 08:25:16;;;;;;;31.52;28.20;;;;;;;16.97;100.00;101038.22;5056435;28;20391;-75
2023/09/17 08:27:41;;;;;;;30.70;27.48;;;;;;;16.97;100.00;101034.66;5055190;28;20039;-80
2023/09/17 08:30:11;;;;;;;31.65;27.55;;;;;;;17.02;100.00;101045.63;5054494;28;20021;-74
2023/09/17 08:32:39;;;;;;;30.75;26.63;;;;;;;17.09;100.00;101038.03;5054902;28;20033;-77
2023/09/17 08:35:08;;;;;;;31.35;27.88;;;;;;;17.11;100.00;101037.75;5054397;28;20052;-74
2023/09/17 08:37:37;;;;;;;33.78;28.58;;;;;;;17.17;100.00;101045.72;5054453;28;20068;-77
2023/09/17 08:40:10;;;;;;;32.80;28.75;;;;;;;17.18;100.00;101044.63;5036181;28;20040;-76
2023/09/17 08:42:40;;;;;;;34.65;30.48;;;;;;;17.21;100.00;101035.09;5036685;28;20036;-76
2023/09/17 08:45:06;;;;;;;36.63;28.65;;;;;;;17.26;100.00;101042.50;5038226;28;20033;-76
2023/09/17 08:47:32;;;;;;;35.95;30.50;;;;;;;17.31;100.00;101034.31;5057771;28;20072;-76
2023/09/17 08:49:57;;;;;;;34.00;29.42;;;;;;;17.32;100.00;101041.44;5036392;28;20064;-76
2023/09/17 08:52:26;;;;;;;38.17;31.17;;;;;;;17.31;100.00;101047.97;5053919;28;20044;-76
2023/09/17 08:54:53;;;;;;;34.00;30.30;;;;;;;17.38;100.00;101056.78;5055180;28;20216;-75
2023/09/17 08:57:23;;;;;;;35.95;32.05;;;;;;;17.42;100.00;101055.16;5066114;28;20039;-74
2023/09/17 09:00:01;;;;;;;39.00;33.00;;;;;;;17.48;100.00;101062.31;5036225;28;20507;-74
2023/09/17 09:02:31;;;;;;;42.10;33.22;;;;;;;17.44;100.00;101066.66;5050520;28;20360;-74
2023/09/17 09:04:57;;;;;;;41.90;35.07;;;;;;;17.49;100.00;101063.94;5035698;28;20044;-74
2023/09/17 09:07:23;;;;;;;42.83;36.55;;;;;;;17.47;100.00;101071.59;5051960;28;20024;-74
2023/09/17 09:09:51;;;;;;;42.63;33.03;;;;;;;17.41;100.00;101069.91;5039694;28;20507;-74
2023/09/17 09:12:17;;;;;;;41.75;34.10;;;;;;;17.45;100.00;101072.94;5074189;28;20040;-73
2023/09/17 09:14:44;;;;;;;41.60;33.10;;;;;;;17.42;100.00;101071.56;5054798;28;20157;-73
2023/09/17 09:17:10;;;;;;;41.67;34.83;;;;;;;17.38;100.00;101084.13;5037694;28;20166;-73
2023/09/17 09:19:36;;;;;;;41.03;35.58;;;;;;;17.40;100.00;101075.66;5036358;28;20380;-73
2023/09/17 09:22:02;;;;;;;41.00;34.40;;;;;;;17.41;100.00;101083.59;5054526;28;20035;-74
2023/09/17 09:24:47;;;;;;;45.35;36.35;;;;;;;17.42;100.00;101068.84;5069737;28;20103;-75
2023/09/17 09:27:13;;;;;;;45.72;35.03;;;;;;;17.42;100.00;101074.31;5074183;28;20039;-75
2023/09/17 09:29:42;;;;;;;45.40;36.70;;;;;;;17.46;100.00;101072.66;5073756;28;20040;-75
2023/09/17 09:32:09;;;;;;;44.83;36.80;;;;;;;17.48;100.00;101067.78;5072170;28;20028;-73
2023/09/17 09:34:36;;;;;;;46.13;36.83;;;;;;;17.50;100.00;101064.78;5042749;28;20119;-73
2023/09/17 09:37:04;;;;;;;44.88;35.90;;;;;;;17.46;100.00;101067.19;5073855;28;20032;-73
2023/09/17 09:39:30;;;;;;;45.97;36.58;;;;;;;17.47;100.00;101057.91;5059692;28;20029;-74
2023/09/17 09:41:55;;;;;;;47.80;37.03;;;;;;;17.48;100.00;101064.19;5035961;28;20428;-75
2023/09/17 09:44:24;;;;;;;48.00;37.00;;;;;;;17.50;100.00;101059.31;5035085;28;20498;-74
2023/09/17 09:46:56;;;;;;;45.40;36.00;;;;;;;17.53;100.00;101054.09;5053747;28;20110;-73
2023/09/17 09:49:23;;;;;;;48.67;38.03;;;;;;;17.55;100.00;101051.09;5053183;28;20029;-73
2023/09/17 09:51:48;;;;;;;48.20;36.13;;;;;;;17.59;100.00;101062.31;5058217;28;20419;-73
2023/09/17 09:54:13;;;;;;;49.55;37.50;;;;;;;17.59;100.00;101062.31;5038199;28;20116;-73
2023/09/17 09:56:39;;;;;;;46.22;35.72;;;;;;;17.60;100.00;101058.50;5053149;28;20358;-73
2023/09/17 09:59:06;;;;;;;52.47;37.47;;;;;;;17.62;100.00;101056.31;5056100;28;20112;-72
2023/09/17 10:01:36;;;;;;;50.33;38.10;;;;;;;17.65;100.00;101062.09;5059629;28;20070;-73
2023/09/17 10:04:05;;;;;;;46.50;38.05;;;;;;;17.70;100.00;101051.16;5073286;28;20040;-72
2023/09/17 10:06:30;;;;;;;50.10;37.35;;;;;;;17.74;100.00;101054.19;5057289;28;20075;-72
2023/09/17 10:08:56;;;;;;;48.85;38.00;;;;;;;17.80;100.00;101052.28;5052961;28;20021;-73
2023/09/17 10:11:22;;;;;;;47.60;37.03;;;;;;;17.85;100.00;101060.53;5053050;28;20029;-72
2023/09/17 10:13:51;;;;;;;47.92;38.33;;;;;;;17.89;100.00;101051.53;5053269;28;20431;-73
2023/09/17 10:16:17;;;;;;;47.25;37.55;;;;;;;17.95;100.00;101054.28;5063062;28;20033;-75
2023/09/17 10:18:45;;;;;;;50.45;39.15;;;;;;;18.01;100.00;101042.25;5073233;28;20032;-72
2023/09/17 10:21:13;;;;;;;52.22;37.65;;;;;;;18.09;100.00;101043.63;5055021;28;20028;-75
2023/09/17 10:23:39;;;;;;;49.25;38.75;;;;;;;18.18;100.00;101042.84;5073035;28;20032;-69
2023/09/17 10:26:06;;;;;;;52.28;38.67;;;;;;;18.24;100.00;101040.94;5066016;28;20387;-70
2023/09/17 10:28:34;;;;;;;47.53;38.15;;;;;;;18.33;100.00;101038.50;5072727;28;20417;-73
2023/09/17 10:31:00;;;;;;;46.80;37.85;;;;;;;18.41;100.00;101026.97;5056185;28;20461;-75
2023/09/17 10:33:29;;;;;;;44.60;35.80;;;;;;;18.39;100.00;101031.91;5058119;28;20029;-73
2023/09/17 10:35:57;;;;;;;43.10;35.38;;;;;;;18.45;100.00;101038.19;5045092;28;20384;-74
2023/09/17 10:38:24;;;;;;;44.38;35.72;;;;;;;18.47;100.00;101039.56;5053374;28;20025;-75
2023/09/17 10:40:50;;;;;;;46.97;34.42;;;;;;;18.52;100.00;101045.03;5060809;28;20040;-73
2023/09/17 10:43:17;;;;;;;41.53;32.90;;;;;;;18.51;100.00;101028.88;5054583;28;20468;-75
2023/09/17 10:45:44;;;;;;;41.60;32.55;;;;;;;18.53;100.00;101035.75;5061133;28;20074;-74
2023/09/17 10:48:11;;;;;;;39.05;31.98;;;;;;;18.54;100.00;101029.19;5057916;28;20048;-74
2023/09/17 10:50:38;;;;;;;40.92;32.97;;;;;;;18.57;100.00;101030.56;5034665;28;20480;-74
2023/09/17 10:53:04;;;;;;;38.35;31.50;;;;;;;18.61;100.00;101031.63;5052667;28;20112;-74
2023/09/17 10:55:36;;;;;;;41.00;32.10;;;;;;;18.70;100.00;101020.94;5052449;28;20025;-74
2023/09/17 10:58:22;;;;;;;42.15;32.33;;;;;;;18.81;100.00;101022.59;5055585;28;20105;-73
2023/09/17 11:00:48;;;;;;;36.25;31.48;;;;;;;18.90;100.00;101025.59;5049038;28;20025;-73